Time;durP1;ratioP1;P1;durP2;ratioP2;P2;SDS_P1;SDS_P2;PMS_P1;PMS_P2;Temp;Humidity;BMP_temperature;BMP_pressure;BME280_temperature;BME280_humidity;BME280_pressure;Samples;Min_cycle;Max_cycle;Signal;HPM_P1;HPM_P2
2024/03/10 00:02:09;;;;;;;1.77;1.30;;;;;;;;;;5074799;28;20040;-64
2024/03/10 00:04:36;;;;;;;2.65;1.80;;;;;;;;;;5067749;28;20079;-65
2024/03/10 00:07:02;;;;;;;2.00;1.25;;;;;;;;;;5071981;28;20028;-64
2024/03/10 00:09:30;;;;;;;2.22;1.92;;;;;;;;;;5071275;28;20401;-65
2024/03/10 00:11:56;;;;;;;1.50;1.00;;;;;;;;;;5078581;28;20036;-65
2024/03/10 00:14:22;;;;;;;1.58;1.23;;;;;;;;;;5075419;28;20430;-64
2024/03/10 00:16:48;;;;;;;1.80;1.20;;;;;;;;;;5080236;28;20044;-65
2024/03/10 00:19:14;;;;;;;1.98;0.98;;;;;;;;;;5072403;28;20040;-64
2024/03/10 00:21:40;;;;;;;2.75;1.48;;;;;;;;;;5069338;28;20056;-65
2024/03/10 00:24:09;;;;;;;2.45;1.40;;;;;;;;;;5071406;28;20032;-65
2024/03/10 00:26:35;;;;;;;1.35;1.00;;;;;;;;;;5072424;28;20694;-65
2024/03/10 00:29:02;;;;;;;1.58;1.00;;;;;;;;;;5080807;28;20532;-65
2024/03/10 00:31:28;;;;;;;2.30;1.40;;;;;;;;;;5069869;28;20041;-64
2024/03/10 00:33:54;;;;;;;2.33;1.33;;;;;;;;;;5071443;28;20037;-65
2024/03/10 00:36:20;;;;;;;3.63;1.30;;;;;;;;;;5071988;28;20064;-65
2024/03/10 00:38:46;;;;;;;1.70;1.20;;;;;;;;;;5070249;28;20044;-63
2024/03/10 00:41:13;;;;;;;1.80;1.60;;;;;;;;;;5077123;28;20042;-65
2024/03/10 00:43:39;;;;;;;3.60;1.25;;;;;;;;;;5077134;28;20041;-65
2024/03/10 00:46:05;;;;;;;2.40;1.15;;;;;;;;;;5079379;28;20192;-66
2024/03/10 00:48:32;;;;;;;2.72;1.50;;;;;;;;;;5076124;28;20350;-66
2024/03/10 00:50:58;;;;;;;3.72;1.30;;;;;;;;;;5065216;28;20418;-65
2024/03/10 00:53:24;;;;;;;2.45;1.33;;;;;;;;;;5072750;28;20040;-64
2024/03/10 00:55:50;;;;;;;2.22;1.30;;;;;;;;;;5069023;28;20036;-65
2024/03/10 00:58:17;;;;;;;2.10;1.20;;;;;;;;;;5072707;28;20052;-64
2024/03/10 01:00:43;;;;;;;4.28;1.60;;;;;;;;;;5070022;28;20059;-64
2024/03/10 01:03:11;;;;;;;3.10;1.42;;;;;;;;;;5073271;28;20044;-64
2024/03/10 01:05:37;;;;;;;2.63;1.40;;;;;;;;;;5070269;28;20051;-64
2024/03/10 01:08:04;;;;;;;1.80;1.25;;;;;;;;;;5068947;28;20032;-64
2024/03/10 01:10:31;;;;;;;2.45;1.27;;;;;;;;;;5076674;28;20346;-64
2024/03/10 01:12:58;;;;;;;1.65;1.00;;;;;;;;;;5048482;28;20052;-64
2024/03/10 01:15:24;;;;;;;1.67;1.20;;;;;;;;;;5070827;28;20047;-64
2024/03/10 01:17:50;;;;;;;1.45;0.90;;;;;;;;;;5070011;28;20414;-64
2024/03/10 01:20:17;;;;;;;2.03;1.00;;;;;;;;;;5066392;28;20047;-64
2024/03/10 01:22:43;;;;;;;1.90;1.10;;;;;;;;;;5079035;28;20024;-64
2024/03/10 01:25:09;;;;;;;1.05;0.63;;;;;;;;;;5065755;28;20037;-64
2024/03/10 01:27:36;;;;;;;1.13;0.80;;;;;;;;;;5050289;28;20036;-64
2024/03/10 01:30:03;;;;;;;1.38;0.80;;;;;;;;;;5073268;28;20036;-64
2024/03/10 01:32:31;;;;;;;7.25;1.48;;;;;;;;;;5069580;28;20036;-64
2024/03/10 01:34:57;;;;;;;2.28;0.73;;;;;;;;;;5060513;28;20032;-64
2024/03/10 01:37:24;;;;;;;1.23;0.90;;;;;;;;;;5070069;28;20405;-64
2024/03/10 01:39:50;;;;;;;1.35;0.93;;;;;;;;;;5060902;28;20044;-64
2024/03/10 01:42:17;;;;;;;1.58;0.90;;;;;;;;;;5084003;28;20041;-64
2024/03/10 01:44:44;;;;;;;1.00;0.80;;;;;;;;;;5065282;28;20062;-64
2024/03/10 01:47:10;;;;;;;1.55;0.70;;;;;;;;;;5076000;28;20036;-64
2024/03/10 01:49:37;;;;;;;0.70;0.70;;;;;;;;;;5076600;28;20040;-64
2024/03/10 01:52:03;;;;;;;1.02;0.80;;;;;;;;;;5071780;28;20043;-65
2024/03/10 01:54:33;;;;;;;2.45;0.90;;;;;;;;;;5069156;28;20049;-64
2024/03/10 01:57:00;;;;;;;4.32;1.00;;;;;;;;;;5058769;28;20044;-64
2024/03/10 01:59:31;;;;;;;1.63;0.80;;;;;;;;;;5062510;28;20044;-64
2024/03/10 02:01:58;;;;;;;1.15;0.88;;;;;;;;;;5091681;28;20032;-64
2024/03/10 02:04:24;;;;;;;2.00;0.80;;;;;;;;;;5050113;28;20416;-64
2024/03/10 02:06:52;;;;;;;1.70;1.10;;;;;;;;;;5067591;28;20577;-64
2024/03/10 02:09:18;;;;;;;1.77;1.00;;;;;;;;;;5069124;28;20036;-64
2024/03/10 02:11:45;;;;;;;1.60;0.80;;;;;;;;;;5076541;28;20037;-63
2024/03/10 02:14:11;;;;;;;0.90;0.70;;;;;;;;;;5069010;28;20039;-63
2024/03/10 02:16:37;;;;;;;1.63;1.00;;;;;;;;;;5074825;28;20044;-64
2024/03/10 02:19:03;;;;;;;1.35;0.90;;;;;;;;;;5070824;28;20036;-64
2024/03/10 02:21:29;;;;;;;0.90;0.70;;;;;;;;;;5067318;28;20044;-64
2024/03/10 02:23:56;;;;;;;1.48;0.88;;;;;;;;;;5070484;28;20112;-64
2024/03/10 02:26:28;;;;;;;1.27;0.70;;;;;;;;;;5065527;28;20036;-64
2024/03/10 02:29:14;;;;;;;1.25;0.80;;;;;;;;;;5072714;28;20524;-64
2024/03/10 02:48:17;;;;;;;1.15;0.70;;;;;;;;;;5065524;28;20545;-65
2024/03/10 02:50:44;;;;;;;0.98;0.85;;;;;;;;;;5072155;28;20037;-64
2024/03/10 02:53:10;;;;;;;1.17;0.70;;;;;;;;;;5066371;28;20043;-65
2024/03/10 02:55:36;;;;;;;1.13;0.70;;;;;;;;;;5067718;28;20037;-64
2024/03/10 02:58:04;;;;;;;0.88;0.50;;;;;;;;;;5069223;28;20417;-65
2024/03/10 03:00:31;;;;;;;1.00;0.75;;;;;;;;;;5068250;28;20052;-65
2024/03/10 03:02:58;;;;;;;1.27;0.73;;;;;;;;;;5075735;28;20036;-64
2024/03/10 03:05:27;;;;;;;0.73;0.55;;;;;;;;;;5068376;28;20437;-65
2024/03/10 03:07:57;;;;;;;1.13;0.80;;;;;;;;;;5067051;28;20146;-64
2024/03/10 03:10:23;;;;;;;;;;;;;;;;;;5082684;28;20051;-65
2024/03/10 03:12:49;;;;;;;1.00;0.90;;;;;;;;;;5079237;28;20320;-65
2024/03/10 03:15:15;;;;;;;1.45;0.90;;;;;;;;;;5065579;28;20409;-65
2024/03/10 03:17:42;;;;;;;1.77;0.80;;;;;;;;;;5074881;28;20039;-64
2024/03/10 03:20:21;;;;;;;1.27;0.70;;;;;;;;;;5081043;28;20051;-66
2024/03/10 03:22:49;;;;;;;0.80;0.65;;;;;;;;;;5099085;28;20040;-65
2024/03/10 03:25:17;;;;;;;1.23;0.93;;;;;;;;;;5073067;28;20044;-65
2024/03/10 03:27:47;;;;;;;0.73;0.67;;;;;;;;;;5072439;28;20405;-65
2024/03/10 03:30:15;;;;;;;0.90;0.65;;;;;;;;;;5077133;28;20302;-64
2024/03/10 03:32:42;;;;;;;1.95;0.70;;;;;;;;;;5066638;28;20416;-64
2024/03/10 03:35:10;;;;;;;0.90;0.60;;;;;;;;;;5051790;28;20044;-65
2024/03/10 03:37:36;;;;;;;1.75;0.95;;;;;;;;;;5069689;28;20041;-64
2024/03/10 03:40:09;;;;;;;3.25;0.70;;;;;;;;;;5073523;28;20047;-65
2024/03/10 03:42:35;;;;;;;1.73;0.80;;;;;;;;;;5071864;28;20048;-64
2024/03/10 03:45:05;;;;;;;0.85;0.70;;;;;;;;;;5071057;28;20428;-65
2024/03/10 03:47:32;;;;;;;0.90;0.70;;;;;;;;;;5068046;28;20053;-64
2024/03/10 03:49:58;;;;;;;0.75;0.70;;;;;;;;;;5075068;28;20032;-64
2024/03/10 03:52:25;;;;;;;0.95;0.85;;;;;;;;;;5075154;28;20052;-64
2024/03/10 03:54:51;;;;;;;2.08;0.90;;;;;;;;;;5069032;28;20484;-64
2024/03/10 03:57:22;;;;;;;1.25;0.82;;;;;;;;;;5069562;28;20425;-64
2024/03/10 03:59:48;;;;;;;1.63;1.13;;;;;;;;;;5061103;28;20547;-64
2024/03/10 04:02:15;;;;;;;1.40;1.02;;;;;;;;;;5071247;28;20039;-64
2024/03/10 04:04:41;;;;;;;2.67;0.90;;;;;;;;;;5067684;28;20052;-64
2024/03/10 04:07:07;;;;;;;1.90;0.90;;;;;;;;;;5074986;28;20047;-64
2024/03/10 04:09:34;;;;;;;2.35;0.80;;;;;;;;;;5072473;28;20035;-64
2024/03/10 04:12:00;;;;;;;1.35;0.75;;;;;;;;;;5082027;28;20401;-64
2024/03/10 04:14:28;;;;;;;1.30;0.98;;;;;;;;;;5072413;28;20041;-64
2024/03/10 04:16:55;;;;;;;0.80;0.70;;;;;;;;;;5074911;28;20036;-64
2024/03/10 04:19:21;;;;;;;1.33;1.00;;;;;;;;;;5076729;28;20509;-63
2024/03/10 04:21:48;;;;;;;1.05;0.80;;;;;;;;;;5070109;28;20421;-66
2024/03/10 04:24:14;;;;;;;2.60;0.95;;;;;;;;;;5076522;28;20035;-64
2024/03/10 04:26:42;;;;;;;1.20;0.88;;;;;;;;;;5070657;28;20056;-64
2024/03/10 04:29:11;;;;;;;1.52;0.82;;;;;;;;;;5095843;28;20048;-64
2024/03/10 04:31:38;;;;;;;1.25;1.10;;;;;;;;;;5068315;28;20044;-65
2024/03/10 04:34:05;;;;;;;1.13;1.02;;;;;;;;;;5072396;28;20036;-63
2024/03/10 04:36:31;;;;;;;0.80;0.70;;;;;;;;;;5065239;28;20049;-63
2024/03/10 04:38:57;;;;;;;1.27;0.95;;;;;;;;;;5069902;28;20036;-64
2024/03/10 04:41:23;;;;;;;1.13;1.00;;;;;;;;;;5075753;28;20039;-65
2024/03/10 04:43:49;;;;;;;0.80;0.70;;;;;;;;;;5067398;28;20398;-64
2024/03/10 04:46:17;;;;;;;1.15;0.95;;;;;;;;;;5075987;28;20406;-64
2024/03/10 04:48:44;;;;;;;1.52;1.05;;;;;;;;;;5070620;28;20037;-63
2024/03/10 04:51:10;;;;;;;3.00;1.60;;;;;;;;;;5098119;28;20036;-65
2024/03/10 04:53:36;;;;;;;2.58;1.33;;;;;;;;;;5067202;28;20055;-64
2024/03/10 04:56:02;;;;;;;1.90;1.17;;;;;;;;;;5067081;28;20045;-64
2024/03/10 04:58:29;;;;;;;1.80;1.35;;;;;;;;;;5074231;28;20036;-65
2024/03/10 05:00:55;;;;;;;2.20;1.50;;;;;;;;;;5063013;28;20508;-65
2024/03/10 05:03:22;;;;;;;2.10;1.15;;;;;;;;;;5057883;28;20044;-64
2024/03/10 05:05:48;;;;;;;2.05;1.35;;;;;;;;;;5060715;28;20048;-65
2024/03/10 05:08:15;;;;;;;1.73;1.02;;;;;;;;;;5066847;28;20043;-63
2024/03/10 05:10:41;;;;;;;1.75;1.15;;;;;;;;;;5080558;28;20044;-64
2024/03/10 05:13:07;;;;;;;2.45;1.10;;;;;;;;;;5067747;28;20028;-64
2024/03/10 05:15:33;;;;;;;2.63;1.20;;;;;;;;;;5074302;28;20413;-64
2024/03/10 05:17:59;;;;;;;2.47;1.00;;;;;;;;;;5078715;28;20036;-65
2024/03/10 05:20:26;;;;;;;2.03;1.23;;;;;;;;;;5066915;28;20048;-64
2024/03/10 05:22:52;;;;;;;1.33;0.98;;;;;;;;;;5067433;28;20040;-64
2024/03/10 05:25:18;;;;;;;1.33;0.80;;;;;;;;;;5067735;28;20417;-64
2024/03/10 05:27:45;;;;;;;2.88;1.30;;;;;;;;;;5072117;28;20028;-64
2024/03/10 05:30:11;;;;;;;1.15;0.82;;;;;;;;;;5080511;28;20054;-65
2024/03/10 05:32:38;;;;;;;1.42;0.95;;;;;;;;;;5074712;28;20033;-64
2024/03/10 05:35:09;;;;;;;2.30;1.10;;;;;;;;;;5065563;28;20083;-67
2024/03/10 05:37:36;;;;;;;1.50;0.95;;;;;;;;;;5070500;28;20049;-64
2024/03/10 05:40:06;;;;;;;3.35;1.10;;;;;;;;;;5069759;28;20429;-66
2024/03/10 05:42:32;;;;;;;1.60;1.00;;;;;;;;;;5062802;28;20422;-64
2024/03/10 05:45:02;;;;;;;1.38;1.00;;;;;;;;;;5064808;28;20039;-64
2024/03/10 05:47:29;;;;;;;1.80;1.13;;;;;;;;;;5076603;28;20436;-63
2024/03/10 05:49:55;;;;;;;1.83;1.10;;;;;;;;;;5072416;28;20048;-64
2024/03/10 05:52:22;;;;;;;3.92;2.38;;;;;;;;;;5066076;28;20055;-65
2024/03/10 05:54:48;;;;;;;1.23;0.82;;;;;;;;;;5067897;28;20445;-64
2024/03/10 05:57:14;;;;;;;1.02;0.90;;;;;;;;;;5063285;28;20449;-64
2024/03/10 05:59:43;;;;;;;1.80;0.90;;;;;;;;;;5077014;28;20049;-65
2024/03/10 06:02:16;;;;;;;2.95;1.40;;;;;;;;;;5073042;28;20036;-65
2024/03/10 06:04:42;;;;;;;1.33;0.98;;;;;;;;;;5064454;28;20062;-64
2024/03/10 06:07:10;;;;;;;1.48;1.10;;;;;;;;;;5079745;28;20054;-63
2024/03/10 06:09:36;;;;;;;1.00;0.90;;;;;;;;;;5070938;28;20055;-63
2024/03/10 06:12:03;;;;;;;2.40;1.10;;;;;;;;;;5066920;28;20052;-62
2024/03/10 06:14:32;;;;;;;0.85;0.73;;;;;;;;;;5070517;28;21048;-62
2024/03/10 06:16:59;;;;;;;1.35;1.10;;;;;;;;;;5078015;28;20402;-62
2024/03/10 06:27:42;;;;;;;1.25;0.85;;;;;;;;;;5069608;28;20033;-62
2024/03/10 06:30:12;;;;;;;3.55;1.23;;;;;;;;;;5062940;28;20044;-63
2024/03/10 06:32:38;;;;;;;2.40;1.20;;;;;;;;;;5073083;28;20127;-61
2024/03/10 06:35:08;;;;;;;1.70;1.23;;;;;;;;;;5072668;28;20032;-65
2024/03/10 06:37:35;;;;;;;1.20;0.85;;;;;;;;;;5065595;28;20039;-63
2024/03/10 06:40:03;;;;;;;2.58;1.50;;;;;;;;;;5066974;28;20041;-63
2024/03/10 06:42:30;;;;;;;2.45;1.30;;;;;;;;;;5070050;28;20036;-62
2024/03/10 06:44:56;;;;;;;1.02;0.90;;;;;;;;;;5067629;28;20040;-63
2024/03/10 06:47:22;;;;;;;1.15;0.75;;;;;;;;;;5070674;28;20032;-62
2024/03/10 06:49:49;;;;;;;1.42;1.00;;;;;;;;;;5068257;28;20057;-62
2024/03/10 06:52:15;;;;;;;2.15;1.08;;;;;;;;;;5066281;28;20495;-62
2024/03/10 06:54:41;;;;;;;2.25;1.15;;;;;;;;;;5072129;28;21273;-62
2024/03/10 06:57:07;;;;;;;1.38;1.05;;;;;;;;;;5065809;28;20060;-62
2024/03/10 06:59:34;;;;;;;1.70;1.20;;;;;;;;;;5063808;28;20040;-62
2024/03/10 07:02:00;;;;;;;1.77;1.20;;;;;;;;;;5066883;28;20055;-64
2024/03/10 07:04:27;;;;;;;5.38;2.63;;;;;;;;;;5071888;28;20039;-62
2024/03/10 07:06:53;;;;;;;3.60;2.10;;;;;;;;;;5075432;28;20029;-62
2024/03/10 07:09:21;;;;;;;2.60;2.00;;;;;;;;;;5074710;28;20044;-62
2024/03/10 07:11:48;;;;;;;2.88;1.98;;;;;;;;;;5063092;28;20041;-62
2024/03/10 07:14:18;;;;;;;4.20;2.60;;;;;;;;;;5060414;28;20560;-63
2024/03/10 07:16:47;;;;;;;4.43;2.47;;;;;;;;;;5061045;28;20028;-63
2024/03/10 07:19:17;;;;;;;5.25;2.92;;;;;;;;;;5055339;28;20059;-63
2024/03/10 07:21:43;;;;;;;4.00;2.50;;;;;;;;;;5067142;28;20037;-65
2024/03/10 07:24:10;;;;;;;5.43;2.42;;;;;;;;;;5066053;28;20497;-63
2024/03/10 07:26:36;;;;;;;4.03;2.70;;;;;;;;;;5069430;28;20032;-63
2024/03/10 07:29:03;;;;;;;4.93;3.13;;;;;;;;;;5061767;28;20037;-62
2024/03/10 07:31:29;;;;;;;2.85;2.05;;;;;;;;;;5070084;28;20396;-64
2024/03/10 07:33:55;;;;;;;3.28;2.05;;;;;;;;;;5067237;28;20058;-62
2024/03/10 07:36:22;;;;;;;3.85;2.47;;;;;;;;;;5071643;28;20048;-61
2024/03/10 07:38:51;;;;;;;4.68;2.45;;;;;;;;;;5062383;28;20059;-63
2024/03/10 07:41:18;;;;;;;5.63;2.78;;;;;;;;;;5094483;28;20067;-62
2024/03/10 07:43:45;;;;;;;8.18;3.85;;;;;;;;;;5067177;28;20539;-62
2024/03/10 07:46:11;;;;;;;5.43;3.80;;;;;;;;;;5074905;28;20080;-62
2024/03/10 07:48:37;;;;;;;6.20;4.10;;;;;;;;;;5069759;28;20035;-65
2024/03/10 07:51:03;;;;;;;6.05;3.90;;;;;;;;;;5072444;28;20505;-61
2024/03/10 07:53:30;;;;;;;6.55;3.65;;;;;;;;;;5067189;28;20059;-62
2024/03/10 07:56:00;;;;;;;7.38;4.50;;;;;;;;;;5068483;28;20044;-62
2024/03/10 07:58:29;;;;;;;4.78;2.85;;;;;;;;;;5062580;28;20151;-60
2024/03/10 08:00:55;;;;;;;3.58;2.58;;;;;;;;;;5069826;28;20494;-61
2024/03/10 08:03:22;;;;;;;5.68;2.50;;;;;;;;;;5072596;28;20119;-61
2024/03/10 08:05:48;;;;;;;3.67;2.20;;;;;;;;;;5064923;28;20054;-61
2024/03/10 08:08:15;;;;;;;3.17;1.80;;;;;;;;;;5072174;28;20381;-59
2024/03/10 08:10:42;;;;;;;9.13;4.97;;;;;;;;;;5077170;28;20055;-62
2024/03/10 08:13:09;;;;;;;9.60;6.18;;;;;;;;;;5079723;28;20420;-62
2024/03/10 08:15:36;;;;;;;5.95;4.18;;;;;;;;;;5068016;28;20067;-62
2024/03/10 08:18:02;;;;;;;7.60;4.40;;;;;;;;;;5068063;28;20051;-61
2024/03/10 08:20:29;;;;;;;7.38;4.75;;;;;;;;;;5070292;28;20449;-62
2024/03/10 08:22:55;;;;;;;7.60;4.03;;;;;;;;;;5076001;28;20043;-62
2024/03/10 08:25:21;;;;;;;7.63;3.58;;;;;;;;;;5070285;28;20510;-62
2024/03/10 08:27:51;;;;;;;5.78;3.42;;;;;;;;;;5071288;28;20032;-61
2024/03/10 08:30:18;;;;;;;5.78;3.63;;;;;;;;;;5069491;28;20056;-62
2024/03/10 08:32:44;;;;;;;8.15;4.88;;;;;;;;;;5068084;28;20044;-62
2024/03/10 08:35:10;;;;;;;14.25;5.88;;;;;;;;;;5067709;28;20032;-62
2024/03/10 08:37:37;;;;;;;9.98;5.40;;;;;;;;;;5073797;28;20048;-61
2024/03/10 08:40:10;;;;;;;9.35;4.70;;;;;;;;;;5065747;28;20040;-62
2024/03/10 08:42:43;;;;;;;4.18;2.40;;;;;;;;;;5078081;28;20065;-62
2024/03/10 08:45:11;;;;;;;4.20;2.08;;;;;;;;;;5070021;28;20488;-62
2024/03/10 08:47:39;;;;;;;2.55;1.63;;;;;;;;;;5068136;28;20494;-63
2024/03/10 08:50:09;;;;;;;3.55;2.58;;;;;;;;;;5064681;28;20402;-64
2024/03/10 08:52:36;;;;;;;5.32;3.50;;;;;;;;;;5067873;28;20040;-62
2024/03/10 08:55:07;;;;;;;7.13;3.92;;;;;;;;;;5066987;28;20107;-62
2024/03/10 08:57:35;;;;;;;8.20;4.95;;;;;;;;;;5064594;28;20049;-62
2024/03/10 09:00:03;;;;;;;8.38;4.43;;;;;;;;;;5079333;28;20044;-61
2024/03/10 09:02:31;;;;;;;6.50;4.20;;;;;;;;;;5068868;28;20040;-62
2024/03/10 09:04:57;;;;;;;9.20;4.38;;;;;;;;;;5079438;28;20396;-62
2024/03/10 09:07:25;;;;;;;8.20;4.20;;;;;;;;;;5072268;28;20049;-62
2024/03/10 09:09:51;;;;;;;9.30;4.05;;;;;;;;;;5082638;28;20040;-61
2024/03/10 09:12:17;;;;;;;9.88;5.82;;;;;;;;;;5066780;28;20028;-61
2024/03/10 09:14:43;;;;;;;8.88;4.68;;;;;;;;;;5073502;28;20079;-61
2024/03/10 09:17:10;;;;;;;5.95;3.50;;;;;;;;;;5064825;28;20044;-61
2024/03/10 09:19:37;;;;;;;4.75;2.80;;;;;;;;;;5066972;28;20059;-61
2024/03/10 09:22:04;;;;;;;4.68;2.90;;;;;;;;;;5068694;28;20036;-61
2024/03/10 09:24:30;;;;;;;7.13;3.47;;;;;;;;;;5065381;28;20036;-61
2024/03/10 09:26:56;;;;;;;5.82;3.63;;;;;;;;;;5068769;28;20055;-61
2024/03/10 09:29:26;;;;;;;12.52;6.25;;;;;;;;;;5062339;28;20409;-61
2024/03/10 09:31:55;;;;;;;12.18;6.57;;;;;;;;;;5071114;28;20059;-61
2024/03/10 09:34:25;;;;;;;13.40;6.70;;;;;;;;;;5071765;28;20043;-61
2024/03/10 09:36:51;;;;;;;9.50;5.97;;;;;;;;;;5075438;28;20032;-61
2024/03/10 09:39:18;;;;;;;7.50;5.00;;;;;;;;;;5074896;28;20413;-62
2024/03/10 09:41:47;;;;;;;6.10;3.65;;;;;;;;;;5066874;28;20055;-61
2024/03/10 09:44:17;;;;;;;3.63;2.90;;;;;;;;;;5076735;28;20047;-62
2024/03/10 09:46:45;;;;;;;4.65;2.42;;;;;;;;;;5070017;28;20048;-61
2024/03/10 09:49:16;;;;;;;4.38;2.50;;;;;;;;;;5069417;28;20405;-62
2024/03/10 09:51:49;;;;;;;6.28;2.85;;;;;;;;;;5072694;28;20037;-63
2024/03/10 09:54:17;;;;;;;7.97;2.83;;;;;;;;;;5065084;28;20409;-61
2024/03/10 09:56:45;;;;;;;5.18;3.13;;;;;;;;;;5072966;28;20043;-62
2024/03/10 09:59:34;;;;;;;8.00;4.20;;;;;;;;;;5076692;28;20444;-61
2024/03/10 10:02:05;;;;;;;10.52;5.95;;;;;;;;;;5066646;28;20028;-62
2024/03/10 10:04:47;;;;;;;8.57;4.05;;;;;;;;;;5080209;28;20075;-61
2024/03/10 10:07:14;;;;;;;16.55;6.88;;;;;;;;;;5077838;28;20044;-61
2024/03/10 10:09:58;;;;;;;21.45;11.18;;;;;;;;;;5072127;28;20060;-61
2024/03/10 10:12:24;;;;;;;13.95;6.78;;;;;;;;;;5067957;28;20044;-62
2024/03/10 10:14:51;;;;;;;9.45;4.72;;;;;;;;;;5070692;28;20044;-62
2024/03/10 10:17:18;;;;;;;7.32;4.40;;;;;;;;;;5066763;28;20043;-61
2024/03/10 10:19:45;;;;;;;7.85;4.55;;;;;;;;;;5067485;28;20044;-61
2024/03/10 10:22:12;;;;;;;6.93;4.15;;;;;;;;;;5066668;28;20089;-62
2024/03/10 10:24:38;;;;;;;6.68;3.97;;;;;;;;;;5073826;28;20052;-61
2024/03/10 10:27:04;;;;;;;7.07;3.72;;;;;;;;;;5066221;28;20048;-61
2024/03/10 10:29:47;;;;;;;7.88;4.03;;;;;;;;;;5065570;28;20059;-62
2024/03/10 10:32:14;;;;;;;8.32;5.40;;;;;;;;;;5062836;28;20033;-62
2024/03/10 10:34:40;;;;;;;8.70;5.18;;;;;;;;;;5077281;28;20056;-61
2024/03/10 10:37:06;;;;;;;6.90;3.95;;;;;;;;;;5079348;28;20031;-61
2024/03/10 10:39:33;;;;;;;5.70;3.25;;;;;;;;;;5073093;28;20049;-62
2024/03/10 10:41:59;;;;;;;6.43;3.17;;;;;;;;;;5071855;28;20062;-62
2024/03/10 10:44:25;;;;;;;5.05;3.22;;;;;;;;;;5072736;28;20039;-62
2024/03/10 10:46:51;;;;;;;5.97;3.47;;;;;;;;;;5077363;28;20028;-62
2024/03/10 10:49:19;;;;;;;7.82;3.80;;;;;;;;;;5068854;28;20513;-61
2024/03/10 10:51:47;;;;;;;4.93;3.70;;;;;;;;;;5065390;28;20032;-62
2024/03/10 10:54:13;;;;;;;9.68;3.83;;;;;;;;;;5065211;28;20098;-61
2024/03/10 10:56:42;;;;;;;5.90;3.60;;;;;;;;;;5068390;28;20053;-62
2024/03/10 10:59:12;;;;;;;5.72;3.42;;;;;;;;;;5066105;28;20047;-61
2024/03/10 11:01:39;;;;;;;6.10;3.97;;;;;;;;;;5072824;28;20033;-62
2024/03/10 11:04:09;;;;;;;6.45;3.92;;;;;;;;;;5071026;28;20044;-62
2024/03/10 11:06:35;;;;;;;6.68;3.30;;;;;;;;;;5070323;28;20048;-62
2024/03/10 11:09:13;;;;;;;4.80;3.25;;;;;;;;;;5067490;28;20032;-62
2024/03/10 11:11:43;;;;;;;6.13;3.65;;;;;;;;;;5070503;28;20045;-62
2024/03/10 11:14:09;;;;;;;5.93;3.38;;;;;;;;;;5066737;28;20383;-63
2024/03/10 11:16:35;;;;;;;9.75;5.57;;;;;;;;;;5070355;28;20063;-61
2024/03/10 11:19:27;;;;;;;6.47;3.50;;;;;;;;;;5065550;28;20444;-63
2024/03/10 11:21:55;;;;;;;7.18;3.38;;;;;;;;;;5063986;28;20052;-62
2024/03/10 11:24:25;;;;;;;4.63;3.00;;;;;;;;;;5064731;28;20049;-63
2024/03/10 11:27:10;;;;;;;5.00;2.90;;;;;;;;;;5065859;28;20525;-62
2024/03/10 11:29:37;;;;;;;6.15;3.53;;;;;;;;;;5067902;28;20040;-63
2024/03/10 11:32:23;;;;;;;5.72;3.67;;;;;;;;;;5061605;28;20052;-62
2024/03/10 11:34:50;;;;;;;7.07;4.28;;;;;;;;;;5067491;28;20051;-62
2024/03/10 11:37:17;;;;;;;5.55;3.30;;;;;;;;;;5069302;28;20406;-62
2024/03/10 11:39:43;;;;;;;4.93;3.17;;;;;;;;;;5061784;28;20055;-62
2024/03/10 11:42:09;;;;;;;5.22;3.05;;;;;;;;;;5070392;28;20044;-63
2024/03/10 11:44:36;;;;;;;4.63;3.00;;;;;;;;;;5067307;28;20037;-63
2024/03/10 11:47:09;;;;;;;3.65;2.78;;;;;;;;;;5066786;28;20053;-62
2024/03/10 11:49:35;;;;;;;5.78;3.00;;;;;;;;;;5068433;28;20063;-63
2024/03/10 11:52:05;;;;;;;5.40;3.00;;;;;;;;;;5065061;28;20059;-63
2024/03/10 11:54:32;;;;;;;4.70;3.17;;;;;;;;;;5076724;28;20098;-62
2024/03/10 11:56:59;;;;;;;4.13;3.00;;;;;;;;;;5067481;28;20051;-62
2024/03/10 11:59:25;;;;;;;5.28;3.10;;;;;;;;;;5068646;28;20050;-63
2024/03/10 12:01:53;;;;;;;6.80;3.35;;;;;;;;;;5068011;28;20040;-63
2024/03/10 12:04:20;;;;;;;23.05;10.45;;;;;;;;;;5067131;28;20055;-63
2024/03/10 12:06:46;;;;;;;33.33;14.93;;;;;;;;;;5073173;28;20421;-64
2024/03/10 12:09:13;;;;;;;12.80;6.43;;;;;;;;;;5069013;28;20032;-63
2024/03/10 12:11:41;;;;;;;7.55;3.85;;;;;;;;;;5066719;28;20052;-63
2024/03/10 12:14:08;;;;;;;5.55;3.50;;;;;;;;;;5068212;28;20064;-62
2024/03/10 12:16:35;;;;;;;8.05;4.50;;;;;;;;;;5065426;28;20043;-64
2024/03/10 12:19:03;;;;;;;12.88;6.03;;;;;;;;;;5070679;28;20047;-63
2024/03/10 12:21:30;;;;;;;6.57;3.33;;;;;;;;;;5063274;28;20036;-63
2024/03/10 12:23:58;;;;;;;3.90;2.83;;;;;;;;;;5068321;28;20039;-63
2024/03/10 12:26:24;;;;;;;5.45;2.58;;;;;;;;;;5075361;28;20048;-63
2024/03/10 12:28:50;;;;;;;5.00;2.80;;;;;;;;;;5071670;28;20040;-63
2024/03/10 12:31:19;;;;;;;3.50;2.50;;;;;;;;;;5067879;28;20421;-63
2024/03/10 12:33:48;;;;;;;3.65;2.40;;;;;;;;;;5070458;28;20115;-63
2024/03/10 12:36:14;;;;;;;3.50;2.30;;;;;;;;;;5074153;28;20045;-64
2024/03/10 12:38:40;;;;;;;4.10;2.42;;;;;;;;;;5076924;28;20052;-63
2024/03/10 12:41:07;;;;;;;4.47;2.28;;;;;;;;;;5077593;28;20028;-63
2024/03/10 12:43:34;;;;;;;2.97;2.50;;;;;;;;;;5068078;28;20033;-63
2024/03/10 12:46:04;;;;;;;4.00;2.45;;;;;;;;;;5061413;28;20036;-63
2024/03/10 12:48:30;;;;;;;4.57;2.72;;;;;;;;;;5068623;28;20448;-63
2024/03/10 12:50:56;;;;;;;4.07;2.83;;;;;;;;;;5075237;28;20036;-64
2024/03/10 12:53:23;;;;;;;3.38;2.30;;;;;;;;;;5077544;28;20037;-64
2024/03/10 12:55:50;;;;;;;4.35;2.40;;;;;;;;;;5068059;28;20044;-61
2024/03/10 12:58:17;;;;;;;4.35;2.63;;;;;;;;;;5073591;28;20036;-63
2024/03/10 13:00:44;;;;;;;5.90;3.15;;;;;;;;;;5074306;28;20047;-63
2024/03/10 13:03:10;;;;;;;5.15;2.95;;;;;;;;;;5076881;28;20053;-63
2024/03/10 13:05:38;;;;;;;4.03;3.08;;;;;;;;;;5073330;28;20394;-61
2024/03/10 13:08:08;;;;;;;4.55;2.95;;;;;;;;;;5072411;28;20024;-62
2024/03/10 13:10:35;;;;;;;3.20;2.45;;;;;;;;;;5067444;28;20455;-62
2024/03/10 13:13:02;;;;;;;2.72;1.88;;;;;;;;;;5067909;28;20041;-62
2024/03/10 13:15:28;;;;;;;3.22;2.45;;;;;;;;;;5068987;28;20279;-63
2024/03/10 13:17:54;;;;;;;3.90;2.17;;;;;;;;;;5069639;28;20049;-62
2024/03/10 13:20:20;;;;;;;3.05;2.10;;;;;;;;;;5074640;28;20420;-62
2024/03/10 13:22:50;;;;;;;4.88;2.42;;;;;;;;;;5067938;28;20443;-63
2024/03/10 13:25:17;;;;;;;4.00;2.10;;;;;;;;;;5066561;28;20032;-62
2024/03/10 13:27:43;;;;;;;3.60;2.03;;;;;;;;;;5064727;28;20055;-62
2024/03/10 13:30:13;;;;;;;5.53;2.60;;;;;;;;;;5073939;28;20051;-65
2024/03/10 13:32:43;;;;;;;5.15;3.25;;;;;;;;;;5068109;28;20052;-63
2024/03/10 13:35:09;;;;;;;4.30;2.67;;;;;;;;;;5064990;28;20071;-63
2024/03/10 13:37:35;;;;;;;4.15;2.45;;;;;;;;;;5074386;28;20033;-63
2024/03/10 13:40:05;;;;;;;4.07;2.58;;;;;;;;;;5070880;28;20024;-63
2024/03/10 13:42:32;;;;;;;4.38;2.13;;;;;;;;;;5069239;28;20052;-63
2024/03/10 13:44:58;;;;;;;3.00;2.22;;;;;;;;;;5061897;28;20049;-63
2024/03/10 13:47:24;;;;;;;5.38;2.97;;;;;;;;;;5064926;28;20055;-63
2024/03/10 13:49:50;;;;;;;4.80;3.30;;;;;;;;;;5076424;28;20039;-64
2024/03/10 13:52:17;;;;;;;5.65;3.03;;;;;;;;;;5073714;28;20048;-63
2024/03/10 13:54:45;;;;;;;5.28;2.78;;;;;;;;;;5069890;28;20051;-63
2024/03/10 13:57:12;;;;;;;4.10;2.85;;;;;;;;;;5073304;28;20519;-63
2024/03/10 13:59:39;;;;;;;4.45;2.95;;;;;;;;;;5068287;28;20055;-62
2024/03/10 14:02:07;;;;;;;5.63;3.10;;;;;;;;;;5069582;28;20036;-63
2024/03/10 14:04:34;;;;;;;4.20;3.30;;;;;;;;;;5075117;28;20079;-64
2024/03/10 14:07:00;;;;;;;6.68;3.25;;;;;;;;;;5075005;28;20143;-63
2024/03/10 14:09:29;;;;;;;5.07;2.95;;;;;;;;;;5066289;28;20049;-62
2024/03/10 14:11:56;;;;;;;5.18;3.13;;;;;;;;;;5072769;28;20409;-63
2024/03/10 14:14:23;;;;;;;6.05;3.55;;;;;;;;;;5070344;28;20114;-62
2024/03/10 14:16:52;;;;;;;5.55;3.55;;;;;;;;;;5063871;28;20040;-62
2024/03/10 14:19:19;;;;;;;5.50;3.35;;;;;;;;;;5062221;28;20044;-61
2024/03/10 14:21:45;;;;;;;6.18;3.22;;;;;;;;;;5065569;28;20044;-63
2024/03/10 14:24:11;;;;;;;7.15;3.85;;;;;;;;;;5073505;28;20048;-63
2024/03/10 14:26:38;;;;;;;6.95;3.50;;;;;;;;;;5074499;28;20037;-63
2024/03/10 14:29:08;;;;;;;9.43;3.95;;;;;;;;;;5075542;28;20044;-64
2024/03/10 14:31:34;;;;;;;;;;;;;;;;;;5065307;28;20045;-64
2024/03/10 14:34:00;;;;;;;7.47;3.65;;;;;;;;;;5073077;28;20305;-63
2024/03/10 14:36:28;;;;;;;6.88;3.70;;;;;;;;;;5064931;28;20037;-63
2024/03/10 14:38:54;;;;;;;5.53;3.65;;;;;;;;;;5066405;28;20048;-63
2024/03/10 14:41:21;;;;;;;6.15;4.00;;;;;;;;;;5067188;28;20063;-63
2024/03/10 14:43:47;;;;;;;8.50;3.92;;;;;;;;;;5067634;28;20044;-62
2024/03/10 14:46:14;;;;;;;7.78;4.07;;;;;;;;;;5075995;28;20830;-63
2024/03/10 14:48:40;;;;;;;7.22;4.40;;;;;;;;;;5063913;28;20056;-63
2024/03/10 14:51:07;;;;;;;7.47;4.80;;;;;;;;;;5062761;28;20039;-62
2024/03/10 14:53:33;;;;;;;7.93;4.97;;;;;;;;;;5072180;28;20044;-63
2024/03/10 14:55:59;;;;;;;6.72;3.63;;;;;;;;;;5074290;28;20036;-62
2024/03/10 14:58:25;;;;;;;10.05;3.80;;;;;;;;;;5073899;28;20043;-63
2024/03/10 15:00:51;;;;;;;6.45;3.50;;;;;;;;;;5067487;28;20028;-63
2024/03/10 15:03:21;;;;;;;4.82;3.42;;;;;;;;;;5069472;28;20055;-63
2024/03/10 15:05:51;;;;;;;5.95;3.67;;;;;;;;;;5072641;28;20033;-62
2024/03/10 15:08:18;;;;;;;6.20;3.95;;;;;;;;;;5065163;28;20071;-62
2024/03/10 15:10:47;;;;;;;6.45;4.75;;;;;;;;;;5069294;28;20060;-63